sensor_id;sensor_type;location;lat;lon;timestamp;temperature;humidity
5980;DHT22;3016;50.308;8.258;2023-08-01T00:01:37;16.20;91.70
5980;DHT22;3016;50.308;8.258;2023-08-01T00:04:38;16.20;92.00
5980;DHT22;3016;50.308;8.258;2023-08-01T00:07:39;16.20;90.70
5980;DHT22;3016;50.308;8.258;2023-08-01T00:10:40;16.20;91.00
5980;DHT22;3016;50.308;8.258;2023-08-01T00:13:41;16.10;91.50
5980;DHT22;3016;50.308;8.258;2023-08-01T00:16:43;16.20;90.40
5980;DHT22;3016;50.308;8.258;2023-08-01T00:19:44;16.20;90.10
5980;DHT22;3016;50.308;8.258;2023-08-01T00:22:44;16.20;91.20
5980;DHT22;3016;50.308;8.258;2023-08-01T00:25:45;16.20;91.50
5980;DHT22;3016;50.308;8.258;2023-08-01T00:28:51;16.10;92.20
5980;DHT22;3016;50.308;8.258;2023-08-01T00:31:52;16.10;92.50
5980;DHT22;3016;50.308;8.258;2023-08-01T00:34:53;16.10;92.30
5980;DHT22;3016;50.308;8.258;2023-08-01T00:37:53;16.10;92.80
5980;DHT22;3016;50.308;8.258;2023-08-01T00:40:54;16.10;93.20
5980;DHT22;3016;50.308;8.258;2023-08-01T00:43:54;16.10;94.20
5980;DHT22;3016;50.308;8.258;2023-08-01T00:46:55;16.10;94.90
5980;DHT22;3016;50.308;8.258;2023-08-01T00:49:56;16.10;95.70
5980;DHT22;3016;50.308;8.258;2023-08-01T00:52:56;16.10;96.50
5980;DHT22;3016;50.308;8.258;2023-08-01T00:55:58;16.10;97.50
5980;DHT22;3016;50.308;8.258;2023-08-01T00:59:00;16.10;97.90
5980;DHT22;3016;50.308;8.258;2023-08-01T01:02:01;16.10;98.00
5980;DHT22;3016;50.308;8.258;2023-08-01T01:05:03;16.10;98.00
5980;DHT22;3016;50.308;8.258;2023-08-01T01:08:04;16.10;98.40
5980;DHT22;3016;50.308;8.258;2023-08-01T01:11:05;16.10;99.00
5980;DHT22;3016;50.308;8.258;2023-08-01T01:14:06;16.10;99.10
5980;DHT22;3016;50.308;8.258;2023-08-01T01:17:06;16.10;99.00
5980;DHT22;3016;50.308;8.258;2023-08-01T01:20:07;16.10;98.50
5980;DHT22;3016;50.308;8.258;2023-08-01T01:23:09;16.10;97.90
5980;DHT22;3016;50.308;8.258;2023-08-01T01:26:11;16.20;97.60
5980;DHT22;3016;50.308;8.258;2023-08-01T01:29:13;16.10;98.00
5980;DHT22;3016;50.308;8.258;2023-08-01T01:32:14;16.10;98.10
5980;DHT22;3016;50.308;8.258;2023-08-01T01:35:15;16.20;97.30
5980;DHT22;3016;50.308;8.258;2023-08-01T01:38:17;16.20;96.20
5980;DHT22;3016;50.308;8.258;2023-08-01T01:41:17;16.20;95.30
5980;DHT22;3016;50.308;8.258;2023-08-01T01:44:18;16.20;94.50
5980;DHT22;3016;50.308;8.258;2023-08-01T01:47:19;16.30;93.50
5980;DHT22;3016;50.308;8.258;2023-08-01T01:50:20;16.30;92.70
5980;DHT22;3016;50.308;8.258;2023-08-01T01:53:21;16.30;93.40
5980;DHT22;3016;50.308;8.258;2023-08-01T01:56:21;16.30;92.40
5980;DHT22;3016;50.308;8.258;2023-08-01T01:59:22;16.30;93.40
5980;DHT22;3016;50.308;8.258;2023-08-01T02:02:23;16.30;94.30
5980;DHT22;3016;50.308;8.258;2023-08-01T02:05:23;16.30;95.10
5980;DHT22;3016;50.308;8.258;2023-08-01T02:08:24;16.30;95.20
5980;DHT22;3016;50.308;8.258;2023-08-01T02:11:24;16.20;96.20
5980;DHT22;3016;50.308;8.258;2023-08-01T02:14:25;16.20;96.80
5980;DHT22;3016;50.308;8.258;2023-08-01T02:17:26;16.30;97.20
5980;DHT22;3016;50.308;8.258;2023-08-01T02:20:26;16.20;97.50
5980;DHT22;3016;50.308;8.258;2023-08-01T02:23:29;16.30;97.20
5980;DHT22;3016;50.308;8.258;2023-08-01T02:26:30;16.30;96.60
5980;DHT22;3016;50.308;8.258;2023-08-01T02:29:31;16.30;95.40
5980;DHT22;3016;50.308;8.258;2023-08-01T02:32:31;16.30;94.60
5980;DHT22;3016;50.308;8.258;2023-08-01T02:35:33;16.40;94.40
5980;DHT22;3016;50.308;8.258;2023-08-01T02:38:33;16.40;94.30
5980;DHT22;3016;50.308;8.258;2023-08-01T02:41:34;16.40;94.10
5980;DHT22;3016;50.308;8.258;2023-08-01T02:44:36;16.40;94.40
5980;DHT22;3016;50.308;8.258;2023-08-01T02:47:36;16.40;94.70
5980;DHT22;3016;50.308;8.258;2023-08-01T02:50:37;16.40;95.10
5980;DHT22;3016;50.308;8.258;2023-08-01T02:53:38;16.40;95.60
5980;DHT22;3016;50.308;8.258;2023-08-01T02:56:41;16.40;95.70
5980;DHT22;3016;50.308;8.258;2023-08-01T02:59:42;16.40;95.70
5980;DHT22;3016;50.308;8.258;2023-08-01T03:02:43;16.40;94.70
5980;DHT22;3016;50.308;8.258;2023-08-01T03:05:43;16.50;94.40
5980;DHT22;3016;50.308;8.258;2023-08-01T03:08:44;16.50;94.10
5980;DHT22;3016;50.308;8.258;2023-08-01T03:11:45;16.50;93.80
5980;DHT22;3016;50.308;8.258;2023-08-01T03:14:45;16.50;94.90
5980;DHT22;3016;50.308;8.258;2023-08-01T03:17:48;16.50;95.40
5980;DHT22;3016;50.308;8.258;2023-08-01T03:20:48;16.50;95.90
5980;DHT22;3016;50.308;8.258;2023-08-01T03:23:49;16.50;96.30
5980;DHT22;3016;50.308;8.258;2023-08-01T03:26:50;16.50;96.50
5980;DHT22;3016;50.308;8.258;2023-08-01T03:29:50;16.50;96.10
5980;DHT22;3016;50.308;8.258;2023-08-01T03:32:51;16.60;95.50
5980;DHT22;3016;50.308;8.258;2023-08-01T03:35:52;16.60;94.10
5980;DHT22;3016;50.308;8.258;2023-08-01T03:38:53;16.60;94.00
5980;DHT22;3016;50.308;8.258;2023-08-01T03:41:53;16.60;94.30
5980;DHT22;3016;50.308;8.258;2023-08-01T03:44:54;16.60;95.10
5980;DHT22;3016;50.308;8.258;2023-08-01T03:47:55;16.60;95.20
5980;DHT22;3016;50.308;8.258;2023-08-01T03:50:55;16.60;95.20
5980;DHT22;3016;50.308;8.258;2023-08-01T03:53:56;16.60;95.50
5980;DHT22;3016;50.308;8.258;2023-08-01T03:56:57;16.60;96.00
5980;DHT22;3016;50.308;8.258;2023-08-01T03:59:57;16.60;96.50
5980;DHT22;3016;50.308;8.258;2023-08-01T04:02:59;16.50;97.00
5980;DHT22;3016;50.308;8.258;2023-08-01T04:06:00;16.50;97.50
5980;DHT22;3016;50.308;8.258;2023-08-01T04:09:00;16.50;98.20
5980;DHT22;3016;50.308;8.258;2023-08-01T04:12:01;16.50;98.60
5980;DHT22;3016;50.308;8.258;2023-08-01T04:15:02;16.50;98.50
5980;DHT22;3016;50.308;8.258;2023-08-01T04:18:03;16.60;98.50
5980;DHT22;3016;50.308;8.258;2023-08-01T04:21:03;16.60;98.20
5980;DHT22;3016;50.308;8.258;2023-08-01T04:24:04;16.60;98.20
5980;DHT22;3016;50.308;8.258;2023-08-01T04:27:05;16.60;97.30
5980;DHT22;3016;50.308;8.258;2023-08-01T04:30:06;16.60;97.10
5980;DHT22;3016;50.308;8.258;2023-08-01T04:33:07;16.70;96.40
5980;DHT22;3016;50.308;8.258;2023-08-01T04:36:08;16.60;96.40
5980;DHT22;3016;50.308;8.258;2023-08-01T04:39:08;16.60;96.50
5980;DHT22;3016;50.308;8.258;2023-08-01T04:42:09;16.70;96.40
5980;DHT22;3016;50.308;8.258;2023-08-01T04:45:10;16.70;95.90
5980;DHT22;3016;50.308;8.258;2023-08-01T04:48:11;16.70;95.80
5980;DHT22;3016;50.308;8.258;2023-08-01T04:51:11;16.60;96.30
5980;DHT22;3016;50.308;8.258;2023-08-01T04:54:12;16.60;97.00
5980;DHT22;3016;50.308;8.258;2023-08-01T04:57:12;16.60;97.80
5980;DHT22;3016;50.308;8.258;2023-08-01T05:00:14;16.60;98.10
5980;DHT22;3016;50.308;8.258;2023-08-01T05:03:14;16.60;98.30
5980;DHT22;3016;50.308;8.258;2023-08-01T05:06:15;16.50;98.90
5980;DHT22;3016;50.308;8.258;2023-08-01T05:09:16;16.50;99.60
5980;DHT22;3016;50.308;8.258;2023-08-01T05:12:16;16.50;99.90
5980;DHT22;3016;50.308;8.258;2023-08-01T05:15:17;16.50;99.90
5980;DHT22;3016;50.308;8.258;2023-08-01T05:18:18;16.50;99.90
5980;DHT22;3016;50.308;8.258;2023-08-01T05:21:19;16.40;99.90
5980;DHT22;3016;50.308;8.258;2023-08-01T05:24:20;16.30;99.90
5980;DHT22;3016;50.308;8.258;2023-08-01T05:27:20;16.30;99.90
5980;DHT22;3016;50.308;8.258;2023-08-01T05:30:21;16.20;99.90
5980;DHT22;3016;50.308;8.258;2023-08-01T05:33:22;16.10;99.90
5980;DHT22;3016;50.308;8.258;2023-08-01T05:36:22;16.10;99.90
5980;DHT22;3016;50.308;8.258;2023-08-01T05:39:23;16.00;99.90
5980;DHT22;3016;50.308;8.258;2023-08-01T05:42:24;15.90;99.90
5980;DHT22;3016;50.308;8.258;2023-08-01T05:45:24;15.80;99.90
5980;DHT22;3016;50.308;8.258;2023-08-01T05:48:25;15.60;99.90
5980;DHT22;3016;50.308;8.258;2023-08-01T05:51:26;15.40;98.10
5980;DHT22;3016;50.308;8.258;2023-08-01T05:54:26;15.30;97.50
5980;DHT22;3016;50.308;8.258;2023-08-01T05:57:27;15.20;96.00
5980;DHT22;3016;50.308;8.258;2023-08-01T06:00:28;15.20;95.70
5980;DHT22;3016;50.308;8.258;2023-08-01T06:03:28;15.10;95.70
5980;DHT22;3016;50.308;8.258;2023-08-01T06:06:29;15.00;95.10
5980;DHT22;3016;50.308;8.258;2023-08-01T06:09:30;15.10;96.50
5980;DHT22;3016;50.308;8.258;2023-08-01T06:12:30;15.10;97.50
5980;DHT22;3016;50.308;8.258;2023-08-01T06:15:31;15.10;97.80
5980;DHT22;3016;50.308;8.258;2023-08-01T06:18:32;15.10;98.50
5980;DHT22;3016;50.308;8.258;2023-08-01T06:21:32;15.10;98.00
5980;DHT22;3016;50.308;8.258;2023-08-01T06:24:33;15.20;98.60
5980;DHT22;3016;50.308;8.258;2023-08-01T06:27:34;15.20;99.50
5980;DHT22;3016;50.308;8.258;2023-08-01T06:30:34;15.20;99.60
5980;DHT22;3016;50.308;8.258;2023-08-01T06:33:35;15.30;99.90
5980;DHT22;3016;50.308;8.258;2023-08-01T06:36:36;15.20;99.00
5980;DHT22;3016;50.308;8.258;2023-08-01T06:39:36;15.30;99.70
5980;DHT22;3016;50.308;8.258;2023-08-01T06:42:37;15.30;99.40
5980;DHT22;3016;50.308;8.258;2023-08-01T06:45:38;15.40;99.60
5980;DHT22;3016;50.308;8.258;2023-08-01T06:48:39;15.50;99.90
5980;DHT22;3016;50.308;8.258;2023-08-01T06:51:39;15.50;99.90
5980;DHT22;3016;50.308;8.258;2023-08-01T06:54:42;15.60;99.90
5980;DHT22;3016;50.308;8.258;2023-08-01T06:57:42;15.70;99.90
5980;DHT22;3016;50.308;8.258;2023-08-01T07:00:44;15.80;99.90
5980;DHT22;3016;50.308;8.258;2023-08-01T07:03:44;15.80;99.90
5980;DHT22;3016;50.308;8.258;2023-08-01T07:06:46;15.90;99.90
5980;DHT22;3016;50.308;8.258;2023-08-01T07:09:46;15.90;99.90
5980;DHT22;3016;50.308;8.258;2023-08-01T07:12:47;16.00;99.90
5980;DHT22;3016;50.308;8.258;2023-08-01T07:15:48;15.90;98.30
5980;DHT22;3016;50.308;8.258;2023-08-01T07:18:49;15.80;97.00
5980;DHT22;3016;50.308;8.258;2023-08-01T07:21:51;15.80;96.30
5980;DHT22;3016;50.308;8.258;2023-08-01T07:24:54;15.70;93.80
5980;DHT22;3016;50.308;8.258;2023-08-01T07:27:55;15.70;94.40
5980;DHT22;3016;50.308;8.258;2023-08-01T07:31:00;15.80;94.00
5980;DHT22;3016;50.308;8.258;2023-08-01T07:34:02;15.70;92.10
5980;DHT22;3016;50.308;8.258;2023-08-01T07:37:03;16.10;94.10
5980;DHT22;3016;50.308;8.258;2023-08-01T07:40:07;16.50;93.40
5980;DHT22;3016;50.308;8.258;2023-08-01T07:43:08;17.00;89.10
5980;DHT22;3016;50.308;8.258;2023-08-01T07:46:09;17.30;64.80
5980;DHT22;3016;50.308;8.258;2023-08-01T07:49:11;17.70;54.20
5980;DHT22;3016;50.308;8.258;2023-08-01T07:52:12;17.70;19.40
5980;DHT22;3016;50.308;8.258;2023-08-01T07:55:13;17.50;15.20
5980;DHT22;3016;50.308;8.258;2023-08-01T07:58:13;17.60;18.30
5980;DHT22;3016;50.308;8.258;2023-08-01T08:01:14;17.60;16.30
5980;DHT22;3016;50.308;8.258;2023-08-01T08:04:15;17.70;6.80
5980;DHT22;3016;50.308;8.258;2023-08-01T08:07:16;17.70;9.30
5980;DHT22;3016;50.308;8.258;2023-08-01T08:10:16;17.60;3.50
5980;DHT22;3016;50.308;8.258;2023-08-01T08:13:17;17.70;9.30
5980;DHT22;3016;50.308;8.258;2023-08-01T08:16:18;17.60;1.00
5980;DHT22;3016;50.308;8.258;2023-08-01T08:19:19;17.60;1.00
5980;DHT22;3016;50.308;8.258;2023-08-01T08:22:19;17.60;1.00
5980;DHT22;3016;50.308;8.258;2023-08-01T08:25:20;17.40;1.00
5980;DHT22;3016;50.308;8.258;2023-08-01T08:28:29;17.50;1.00
5980;DHT22;3016;50.308;8.258;2023-08-01T08:31:31;17.60;1.00
5980;DHT22;3016;50.308;8.258;2023-08-01T08:34:32;17.80;1.00
5980;DHT22;3016;50.308;8.258;2023-08-01T08:37:32;18.00;1.00
5980;DHT22;3016;50.308;8.258;2023-08-01T08:40:33;18.20;1.00
5980;DHT22;3016;50.308;8.258;2023-08-01T08:43:34;18.30;1.00
5980;DHT22;3016;50.308;8.258;2023-08-01T08:46:41;18.40;1.00
5980;DHT22;3016;50.308;8.258;2023-08-01T08:49:45;18.60;1.00
5980;DHT22;3016;50.308;8.258;2023-08-01T08:52:52;18.80;1.00
5980;DHT22;3016;50.308;8.258;2023-08-01T08:55:55;19.10;1.00
5980;DHT22;3016;50.308;8.258;2023-08-01T08:58:57;19.30;1.00
5980;DHT22;3016;50.308;8.258;2023-08-01T09:01:57;19.60;1.00
5980;DHT22;3016;50.308;8.258;2023-08-01T09:04:58;19.40;1.00
5980;DHT22;3016;50.308;8.258;2023-08-01T09:08:04;19.10;1.00
5980;DHT22;3016;50.308;8.258;2023-08-01T09:11:05;18.80;1.00
5980;DHT22;3016;50.308;8.258;2023-08-01T09:14:06;18.70;1.00
5980;DHT22;3016;50.308;8.258;2023-08-01T09:17:08;18.70;1.00
5980;DHT22;3016;50.308;8.258;2023-08-01T09:20:09;18.60;1.00
5980;DHT22;3016;50.308;8.258;2023-08-01T09:23:10;18.40;1.00
5980;DHT22;3016;50.308;8.258;2023-08-01T09:26:19;18.60;1.00
5980;DHT22;3016;50.308;8.258;2023-08-01T09:29:20;18.70;1.00
5980;DHT22;3016;50.308;8.258;2023-08-01T09:32:21;18.70;1.00
5980;DHT22;3016;50.308;8.258;2023-08-01T09:35:23;18.60;1.00
5980;DHT22;3016;50.308;8.258;2023-08-01T09:38:23;18.50;1.00
5980;DHT22;3016;50.308;8.258;2023-08-01T09:41:26;18.30;1.00
5980;DHT22;3016;50.308;8.258;2023-08-01T09:44:28;18.10;1.00
5980;DHT22;3016;50.308;8.258;2023-08-01T09:47:36;18.00;1.00
5980;DHT22;3016;50.308;8.258;2023-08-01T09:50:37;18.40;1.00
5980;DHT22;3016;50.308;8.258;2023-08-01T09:56:51;18.70;1.00
5980;DHT22;3016;50.308;8.258;2023-08-01T09:59:52;18.70;1.00
5980;DHT22;3016;50.308;8.258;2023-08-01T10:02:55;18.70;1.00
5980;DHT22;3016;50.308;8.258;2023-08-01T10:05:58;18.80;1.00
5980;DHT22;3016;50.308;8.258;2023-08-01T10:08:59;19.00;1.00
5980;DHT22;3016;50.308;8.258;2023-08-01T10:12:01;19.30;1.00
5980;DHT22;3016;50.308;8.258;2023-08-01T10:15:04;19.60;1.00
5980;DHT22;3016;50.308;8.258;2023-08-01T10:18:05;19.60;1.00
5980;DHT22;3016;50.308;8.258;2023-08-01T10:21:07;19.40;1.00
5980;DHT22;3016;50.308;8.258;2023-08-01T10:24:10;19.20;1.00
5980;DHT22;3016;50.308;8.258;2023-08-01T10:27:14;18.90;1.00
5980;DHT22;3016;50.308;8.258;2023-08-01T10:30:26;18.70;1.00
5980;DHT22;3016;50.308;8.258;2023-08-01T10:33:33;18.40;1.00
5980;DHT22;3016;50.308;8.258;2023-08-01T10:36:34;18.20;1.00
5980;DHT22;3016;50.308;8.258;2023-08-01T10:39:35;18.30;1.00
5980;DHT22;3016;50.308;8.258;2023-08-01T10:42:44;18.50;1.00
5980;DHT22;3016;50.308;8.258;2023-08-01T10:45:45;18.60;1.00
5980;DHT22;3016;50.308;8.258;2023-08-01T10:48:50;18.80;1.00
5980;DHT22;3016;50.308;8.258;2023-08-01T10:51:51;19.00;1.00
5980;DHT22;3016;50.308;8.258;2023-08-01T10:55:00;19.20;1.00
5980;DHT22;3016;50.308;8.258;2023-08-01T10:58:02;19.20;1.00
5980;DHT22;3016;50.308;8.258;2023-08-01T11:01:03;19.30;1.00
5980;DHT22;3016;50.308;8.258;2023-08-01T11:04:20;19.20;1.00
5980;DHT22;3016;50.308;8.258;2023-08-01T11:07:22;19.10;1.00
5980;DHT22;3016;50.308;8.258;2023-08-01T11:10:27;18.90;1.00
5980;DHT22;3016;50.308;8.258;2023-08-01T11:13:31;18.60;1.00
5980;DHT22;3016;50.308;8.258;2023-08-01T11:16:37;18.40;1.00
5980;DHT22;3016;50.308;8.258;2023-08-01T11:19:38;18.30;1.00
5980;DHT22;3016;50.308;8.258;2023-08-01T11:22:51;18.40;1.00
5980;DHT22;3016;50.308;8.258;2023-08-01T11:25:52;18.50;1.00
5980;DHT22;3016;50.308;8.258;2023-08-01T11:28:55;18.60;1.00
5980;DHT22;3016;50.308;8.258;2023-08-01T11:31:58;18.70;1.00
5980;DHT22;3016;50.308;8.258;2023-08-01T11:34:59;18.70;1.00
5980;DHT22;3016;50.308;8.258;2023-08-01T11:38:00;18.80;1.00
5980;DHT22;3016;50.308;8.258;2023-08-01T11:41:05;18.80;1.00
5980;DHT22;3016;50.308;8.258;2023-08-01T11:44:05;18.90;1.00
5980;DHT22;3016;50.308;8.258;2023-08-01T11:47:16;19.10;1.00
5980;DHT22;3016;50.308;8.258;2023-08-01T11:50:25;19.10;1.00
5980;DHT22;3016;50.308;8.258;2023-08-01T11:53:27;19.10;1.00
5980;DHT22;3016;50.308;8.258;2023-08-01T11:56:29;19.10;1.00
5980;DHT22;3016;50.308;8.258;2023-08-01T11:59:30;19.20;1.00
5980;DHT22;3016;50.308;8.258;2023-08-01T12:02:31;19.30;1.00
5980;DHT22;3016;50.308;8.258;2023-08-01T12:05:32;19.30;1.00
5980;DHT22;3016;50.308;8.258;2023-08-01T12:08:33;19.40;1.00
5980;DHT22;3016;50.308;8.258;2023-08-01T12:11:34;19.20;1.00
5980;DHT22;3016;50.308;8.258;2023-08-01T12:14:40;19.20;1.00
5980;DHT22;3016;50.308;8.258;2023-08-01T12:17:41;19.40;1.00
5980;DHT22;3016;50.308;8.258;2023-08-01T12:20:42;19.50;1.00
5980;DHT22;3016;50.308;8.258;2023-08-01T12:23:43;19.60;1.00
5980;DHT22;3016;50.308;8.258;2023-08-01T12:26:43;19.50;1.00
5980;DHT22;3016;50.308;8.258;2023-08-01T12:29:44;19.40;1.00
5980;DHT22;3016;50.308;8.258;2023-08-01T12:32:44;19.30;1.00
5980;DHT22;3016;50.308;8.258;2023-08-01T12:35:45;19.20;1.00
5980;DHT22;3016;50.308;8.258;2023-08-01T12:38:46;19.30;1.00
5980;DHT22;3016;50.308;8.258;2023-08-01T12:41:47;19.50;1.00
5980;DHT22;3016;50.308;8.258;2023-08-01T12:44:47;19.50;1.00
5980;DHT22;3016;50.308;8.258;2023-08-01T12:47:49;19.50;1.00
5980;DHT22;3016;50.308;8.258;2023-08-01T12:50:49;19.70;1.00
5980;DHT22;3016;50.308;8.258;2023-08-01T12:53:50;20.00;1.00
5980;DHT22;3016;50.308;8.258;2023-08-01T12:56:51;20.20;1.00
5980;DHT22;3016;50.308;8.258;2023-08-01T12:59:51;20.40;1.00
5980;DHT22;3016;50.308;8.258;2023-08-01T13:02:52;20.60;1.00
5980;DHT22;3016;50.308;8.258;2023-08-01T13:05:53;20.90;1.00
5980;DHT22;3016;50.308;8.258;2023-08-01T13:08:53;21.10;1.00
5980;DHT22;3016;50.308;8.258;2023-08-01T13:11:54;21.20;1.00
5980;DHT22;3016;50.308;8.258;2023-08-01T13:14:56;21.00;1.00
5980;DHT22;3016;50.308;8.258;2023-08-01T13:17:57;20.70;1.00
5980;DHT22;3016;50.308;8.258;2023-08-01T13:20:58;20.20;1.00
5980;DHT22;3016;50.308;8.258;2023-08-01T13:24:00;19.40;1.00
5980;DHT22;3016;50.308;8.258;2023-08-01T13:27:05;18.70;1.00
5980;DHT22;3016;50.308;8.258;2023-08-01T13:30:06;18.40;1.00
5980;DHT22;3016;50.308;8.258;2023-08-01T13:33:08;18.20;1.00
5980;DHT22;3016;50.308;8.258;2023-08-01T13:36:08;18.10;1.00
5980;DHT22;3016;50.308;8.258;2023-08-01T13:39:09;18.20;1.00
5980;DHT22;3016;50.308;8.258;2023-08-01T13:42:10;18.20;1.00
5980;DHT22;3016;50.308;8.258;2023-08-01T13:45:10;18.50;1.00
5980;DHT22;3016;50.308;8.258;2023-08-01T13:48:11;18.80;1.00
5980;DHT22;3016;50.308;8.258;2023-08-01T13:51:12;19.00;1.00
5980;DHT22;3016;50.308;8.258;2023-08-01T13:54:13;19.20;1.00
5980;DHT22;3016;50.308;8.258;2023-08-01T13:57:14;19.30;1.00
5980;DHT22;3016;50.308;8.258;2023-08-01T14:00:15;19.20;1.00
5980;DHT22;3016;50.308;8.258;2023-08-01T14:03:16;19.00;1.00
5980;DHT22;3016;50.308;8.258;2023-08-01T14:06:16;19.00;1.00
5980;DHT22;3016;50.308;8.258;2023-08-01T14:09:17;18.90;1.00
5980;DHT22;3016;50.308;8.258;2023-08-01T14:12:18;18.80;1.00
5980;DHT22;3016;50.308;8.258;2023-08-01T14:15:20;18.90;1.00
5980;DHT22;3016;50.308;8.258;2023-08-01T14:18:21;19.00;1.00
5980;DHT22;3016;50.308;8.258;2023-08-01T14:21:22;19.10;1.00
5980;DHT22;3016;50.308;8.258;2023-08-01T14:24:23;19.00;1.00
5980;DHT22;3016;50.308;8.258;2023-08-01T14:27:24;18.80;1.00
5980;DHT22;3016;50.308;8.258;2023-08-01T14:30:24;18.70;1.00
5980;DHT22;3016;50.308;8.258;2023-08-01T14:33:25;18.70;1.00
5980;DHT22;3016;50.308;8.258;2023-08-01T14:36:26;18.70;1.00
5980;DHT22;3016;50.308;8.258;2023-08-01T14:39:26;18.80;1.00
5980;DHT22;3016;50.308;8.258;2023-08-01T14:42:27;19.00;1.00
5980;DHT22;3016;50.308;8.258;2023-08-01T14:45:28;19.30;1.00
5980;DHT22;3016;50.308;8.258;2023-08-01T14:48:28;19.40;1.00
5980;DHT22;3016;50.308;8.258;2023-08-01T14:51:29;19.30;1.00
5980;DHT22;3016;50.308;8.258;2023-08-01T14:54:30;19.70;1.00
5980;DHT22;3016;50.308;8.258;2023-08-01T14:57:31;19.80;1.00
5980;DHT22;3016;50.308;8.258;2023-08-01T15:00:36;19.50;1.00
5980;DHT22;3016;50.308;8.258;2023-08-01T15:03:36;19.30;1.00
5980;DHT22;3016;50.308;8.258;2023-08-01T15:06:37;19.20;1.00
5980;DHT22;3016;50.308;8.258;2023-08-01T15:09:42;19.20;1.00
5980;DHT22;3016;50.308;8.258;2023-08-01T15:12:43;19.20;1.00
5980;DHT22;3016;50.308;8.258;2023-08-01T15:15:44;19.20;1.00
5980;DHT22;3016;50.308;8.258;2023-08-01T15:18:45;19.10;1.00
5980;DHT22;3016;50.308;8.258;2023-08-01T15:21:46;19.00;1.00
5980;DHT22;3016;50.308;8.258;2023-08-01T15:24:47;19.00;1.00
5980;DHT22;3016;50.308;8.258;2023-08-01T15:27:48;18.90;1.00
5980;DHT22;3016;50.308;8.258;2023-08-01T15:30:49;18.90;1.00
5980;DHT22;3016;50.308;8.258;2023-08-01T15:33:50;18.80;1.00
5980;DHT22;3016;50.308;8.258;2023-08-01T15:36:51;18.70;1.00
5980;DHT22;3016;50.308;8.258;2023-08-01T15:39:51;18.50;1.00
5980;DHT22;3016;50.308;8.258;2023-08-01T15:42:52;18.40;1.00
5980;DHT22;3016;50.308;8.258;2023-08-01T15:45:53;18.20;1.00
5980;DHT22;3016;50.308;8.258;2023-08-01T15:48:53;18.10;1.00
5980;DHT22;3016;50.308;8.258;2023-08-01T15:51:54;18.20;1.00
5980;DHT22;3016;50.308;8.258;2023-08-01T15:54:55;18.30;1.00
5980;DHT22;3016;50.308;8.258;2023-08-01T15:57:55;18.40;1.00
5980;DHT22;3016;50.308;8.258;2023-08-01T16:00:57;18.90;1.00
5980;DHT22;3016;50.308;8.258;2023-08-01T16:03:58;19.30;1.00
5980;DHT22;3016;50.308;8.258;2023-08-01T16:06:59;19.50;1.00
5980;DHT22;3016;50.308;8.258;2023-08-01T16:10:00;19.80;1.00
5980;DHT22;3016;50.308;8.258;2023-08-01T16:13:00;19.80;1.00
5980;DHT22;3016;50.308;8.258;2023-08-01T16:16:01;19.80;1.00
5980;DHT22;3016;50.308;8.258;2023-08-01T16:19:02;19.80;1.00
5980;DHT22;3016;50.308;8.258;2023-08-01T16:22:02;19.70;1.00
5980;DHT22;3016;50.308;8.258;2023-08-01T16:25:04;19.70;1.00
5980;DHT22;3016;50.308;8.258;2023-08-01T16:28:05;19.50;1.00
5980;DHT22;3016;50.308;8.258;2023-08-01T16:31:05;19.40;1.00
5980;DHT22;3016;50.308;8.258;2023-08-01T16:34:06;19.30;1.00
5980;DHT22;3016;50.308;8.258;2023-08-01T16:37:07;19.30;1.00
5980;DHT22;3016;50.308;8.258;2023-08-01T16:40:09;19.60;1.00
5980;DHT22;3016;50.308;8.258;2023-08-01T16:43:10;20.10;1.00
5980;DHT22;3016;50.308;8.258;2023-08-01T16:46:11;20.40;1.00
5980;DHT22;3016;50.308;8.258;2023-08-01T16:49:11;20.60;1.00
5980;DHT22;3016;50.308;8.258;2023-08-01T16:52:12;20.80;1.00
5980;DHT22;3016;50.308;8.258;2023-08-01T16:55:13;21.00;1.00
5980;DHT22;3016;50.308;8.258;2023-08-01T16:58:14;20.90;1.00
5980;DHT22;3016;50.308;8.258;2023-08-01T17:01:15;20.70;1.00
5980;DHT22;3016;50.308;8.258;2023-08-01T17:04:16;20.60;1.00
5980;DHT22;3016;50.308;8.258;2023-08-01T17:07:16;20.40;1.00
5980;DHT22;3016;50.308;8.258;2023-08-01T17:10:17;20.20;1.00
5980;DHT22;3016;50.308;8.258;2023-08-01T17:13:18;20.10;1.00
5980;DHT22;3016;50.308;8.258;2023-08-01T17:16:19;20.30;1.00
5980;DHT22;3016;50.308;8.258;2023-08-01T17:19:20;20.50;1.00
5980;DHT22;3016;50.308;8.258;2023-08-01T17:22:20;20.50;1.00
5980;DHT22;3016;50.308;8.258;2023-08-01T17:25:21;20.50;1.00
5980;DHT22;3016;50.308;8.258;2023-08-01T17:28:22;20.20;1.00
5980;DHT22;3016;50.308;8.258;2023-08-01T17:31:22;19.80;1.00
5980;DHT22;3016;50.308;8.258;2023-08-01T17:34:23;19.60;1.00
5980;DHT22;3016;50.308;8.258;2023-08-01T17:37:24;19.60;1.00
5980;DHT22;3016;50.308;8.258;2023-08-01T17:40:24;19.80;1.00
5980;DHT22;3016;50.308;8.258;2023-08-01T17:43:25;20.00;1.00
5980;DHT22;3016;50.308;8.258;2023-08-01T17:46:27;20.20;1.00
5980;DHT22;3016;50.308;8.258;2023-08-01T17:49:28;20.30;1.00
5980;DHT22;3016;50.308;8.258;2023-08-01T17:52:28;20.30;1.00
5980;DHT22;3016;50.308;8.258;2023-08-01T17:55:29;20.20;1.00
5980;DHT22;3016;50.308;8.258;2023-08-01T17:58:30;20.20;1.00
5980;DHT22;3016;50.308;8.258;2023-08-01T18:01:31;20.00;1.00
5980;DHT22;3016;50.308;8.258;2023-08-01T18:04:34;19.80;1.00
5980;DHT22;3016;50.308;8.258;2023-08-01T18:07:34;19.50;1.00
5980;DHT22;3016;50.308;8.258;2023-08-01T18:10:36;19.10;1.00
5980;DHT22;3016;50.308;8.258;2023-08-01T18:13:42;18.90;1.00
5980;DHT22;3016;50.308;8.258;2023-08-01T18:16:43;18.70;1.00
5980;DHT22;3016;50.308;8.258;2023-08-01T18:19:44;18.50;1.00
5980;DHT22;3016;50.308;8.258;2023-08-01T18:22:45;18.40;1.00
5980;DHT22;3016;50.308;8.258;2023-08-01T18:25:46;18.20;1.00
5980;DHT22;3016;50.308;8.258;2023-08-01T18:28:47;18.20;1.00
5980;DHT22;3016;50.308;8.258;2023-08-01T18:31:48;18.10;1.00
5980;DHT22;3016;50.308;8.258;2023-08-01T18:34:49;18.00;1.00
5980;DHT22;3016;50.308;8.258;2023-08-01T18:37:54;18.00;1.00
5980;DHT22;3016;50.308;8.258;2023-08-01T18:40:56;17.90;1.00
5980;DHT22;3016;50.308;8.258;2023-08-01T18:43:56;17.90;1.00
5980;DHT22;3016;50.308;8.258;2023-08-01T18:46:57;17.80;1.00
5980;DHT22;3016;50.308;8.258;2023-08-01T18:49:58;17.80;1.00
5980;DHT22;3016;50.308;8.258;2023-08-01T18:52:59;17.70;1.00
5980;DHT22;3016;50.308;8.258;2023-08-01T18:56:05;17.70;1.00
5980;DHT22;3016;50.308;8.258;2023-08-01T18:59:09;17.70;1.00
5980;DHT22;3016;50.308;8.258;2023-08-01T19:02:10;17.70;1.00
5980;DHT22;3016;50.308;8.258;2023-08-01T19:05:11;17.60;1.00
5980;DHT22;3016;50.308;8.258;2023-08-01T19:08:11;17.60;1.00
5980;DHT22;3016;50.308;8.258;2023-08-01T19:11:12;17.50;1.00
5980;DHT22;3016;50.308;8.258;2023-08-01T19:14:13;17.50;1.00
5980;DHT22;3016;50.308;8.258;2023-08-01T19:17:14;17.40;1.00
5980;DHT22;3016;50.308;8.258;2023-08-01T19:20:15;17.30;1.00
5980;DHT22;3016;50.308;8.258;2023-08-01T19:23:15;17.20;1.00
5980;DHT22;3016;50.308;8.258;2023-08-01T19:26:16;17.10;1.00
5980;DHT22;3016;50.308;8.258;2023-08-01T19:29:17;17.10;1.00
5980;DHT22;3016;50.308;8.258;2023-08-01T19:32:18;17.10;1.00
5980;DHT22;3016;50.308;8.258;2023-08-01T19:35:19;17.00;1.00
5980;DHT22;3016;50.308;8.258;2023-08-01T19:38:21;17.00;1.00
5980;DHT22;3016;50.308;8.258;2023-08-01T19:41:22;17.00;1.00
5980;DHT22;3016;50.308;8.258;2023-08-01T19:44:23;16.90;1.00
5980;DHT22;3016;50.308;8.258;2023-08-01T19:47:24;16.90;1.00
5980;DHT22;3016;50.308;8.258;2023-08-01T19:50:25;16.90;1.00
5980;DHT22;3016;50.308;8.258;2023-08-01T19:53:26;16.90;1.00
5980;DHT22;3016;50.308;8.258;2023-08-01T19:56:26;16.90;1.00
5980;DHT22;3016;50.308;8.258;2023-08-01T19:59:27;16.90;1.00